Clinton, MS

11:08 AM CDT on July 31, 2014 (GMT -0500)
Raymond (KM16) Elev 246 ft | 32.30 °N, 90.41 °W | Change Station

Current weather conditions updated 1037 days ago

Rain
Rain
82 °F
Feels Like 82 °F
N
6
Wind Variable Wind from ENE
Gusts 7 mph

Today is forecast to be Much Warmer than yesterday.

Today
High -- | Low -- °F
--% Chance of Precip.
Yesterday
High -- | Low -- °F
Precip. -- in
6:15 AM 7:59 PM
Waxing Crescent, 19% visible
Pressure 29.90 in
Visibility 9.0 miles
Clouds Clear
Heat Index 82 °F
Dew Point 59 °F
Humidity 44%
Rainfall 0.00 in
Snow Depth Not available.
UV 0 out of 12
Pollen 3.20 out of 12
Air Quality Not available.
Flu Activity Not available.
METAR KM16 280555Z AUTO 00000KT 9SM VCTS CLR 23/22 A2990 RMK AO2 LTG DSNT N AND NE

More Conditions Fewer Conditions

Pressure 29.90 in
Visibility 9.0 miles
Clouds Clear
Heat Index 82 °F
Dew Point 59 °F
Humidity 44%
Rainfall 0.00 in
Snow Depth Not available.
UV 0 out of 12
Pollen 3.20 out of 12
Air Quality Not available.
Flu Activity Not available.
METAR KM16 280555Z AUTO 00000KT 9SM VCTS CLR 23/22 A2990 RMK AO2 LTG DSNT N AND NE

More Conditions Fewer Conditions

10-Day Weather Forecast

Almanac

Astronomy

Jul. 31, 2014 Rise Set
Actual Time 6:15 AM CDT 7:59 PM CDT
Civil Twilight 5:48 AM CDT 8:26 PM CDT
Nautical Twilight 5:16 AM CDT 8:58 PM CDT
Astronomical Twilight 4:42 AM CDT 9:32 PM CDT
Moon 10:24 AM CDT 10:32 PM CDT
Length of Visible Light 14h 37m
Length of Day
13h 44m
Tomorrow will be 1m 28s shorter.
Waxing Crescent, 19% of the Moon is Illuminated
Today
Waxing Crescent
Aug 3
First Quarter
Aug 10
Full
Aug 17
Last Quarter
Aug 25
New

Today's Extremes

State Highs State Lows

Community

WunderPhotos

Upload Photos

1,739,363 photos uploaded!

Nearby

Snow Depth

Station Depth Elevation
No new snow has been reported.

Earthquake Activity

City Distance Mag. Time & Date
No recent earthquake activity has been reported nearby.
Minimum magnitude displayed is 2.5.

Coastal Water Temperatures

Place Temperature
No Stations Reporting

Nearby Weather Stations

Station Location Temp. Heat Index Dew Point Humidity Wind Precip. Elev Updated Type
Brinkly, Jackson, MS 75.4 °F 75 °F 71 °F 87% SE  at  0.0 mph - / hr 344 ft 10:54 AM CDT Normal
Red Oak, Gluckstadt, MS 75.7 °F 77 °F 69 °F 79% NNW  at  0.0 mph 0.00 in / hr 289 ft 11:08 AM CDT Rapid Fire
Tank, Crystal Springs, MS 75.2 °F 75 °F 70 °F 84% SE  at  0.0 mph - / hr 338 ft 10:57 AM CDT Normal
Country Meadows, Brandon, MS 76.5 °F 78 °F 68 °F 75% SSW  at  0.0 mph - / hr 367 ft 11:02 AM CDT Normal
Raintree Place, Brandon, MS 76.1 °F 78 °F 67 °F 73% East  at  0.0 mph - / hr 410 ft 11:01 AM CDT Normal

Show More Stations Show Fewer Stations